createdAt,value
2022-07-31T00:01:55.119Z,101854.09
2022-07-31T00:04:28.418Z,101854.94
2022-07-31T00:07:00.795Z,101852.22
2022-07-31T00:09:49.154Z,101856.56
2022-07-31T00:12:25.161Z,101849.47
2022-07-31T00:14:57.162Z,101849.47
2022-07-31T00:17:29.156Z,101841.44
2022-07-31T00:20:01.150Z,101836.19
2022-07-31T00:22:33.435Z,101838.84
2022-07-31T00:25:06.314Z,101836.09
2022-07-31T00:27:39.699Z,101840.59
2022-07-31T00:30:13.568Z,101831.78
2022-07-31T00:32:46.147Z,101825.72
2022-07-31T00:35:18.140Z,101824.97
2022-07-31T00:38:02.166Z,101823.25
2022-07-31T00:40:50.455Z,101825.03
2022-07-31T00:43:22.429Z,101821.56
2022-07-31T00:45:58.522Z,101815.47
2022-07-31T00:48:31.302Z,101805.91
2022-07-31T00:51:03.587Z,101803.25
2022-07-31T00:53:35.618Z,101813.03
2022-07-31T00:56:07.629Z,101809.50
2022-07-31T00:58:39.724Z,101804.28
2022-07-31T01:01:11.751Z,101803.47
2022-07-31T01:03:43.983Z,101816.78
2022-07-31T01:06:16.013Z,101815.22
2022-07-31T01:08:49.478Z,101825.94
2022-07-31T01:11:45.071Z,101810.88
2022-07-31T01:14:20.592Z,101817.97
2022-07-31T01:16:54.553Z,101815.22
2022-07-31T01:19:42.579Z,101798.41
2022-07-31T01:22:33.805Z,101793.88
2022-07-31T01:25:33.203Z,101798.44
2022-07-31T01:28:23.126Z,101794.03
2022-07-31T01:31:26.763Z,101789.56
2022-07-31T01:34:20.506Z,101781.56
2022-07-31T01:37:02.019Z,101777.25
2022-07-31T01:39:36.268Z,101775.47
2022-07-31T01:42:12.825Z,101769.75
2022-07-31T01:44:49.639Z,101769.97
2022-07-31T01:47:23.462Z,101769.34
2022-07-31T01:49:58.631Z,101769.19
2022-07-31T01:52:33.592Z,101765.75
2022-07-31T01:55:07.292Z,101775.41
2022-07-31T01:57:41.787Z,101778.22
2022-07-31T02:00:33.740Z,101777.22
2022-07-31T02:03:09.718Z,101775.53
2022-07-31T02:05:44.563Z,101779.09
2022-07-31T02:08:18.785Z,101777.25
2022-07-31T02:10:52.811Z,101773.63
2022-07-31T02:13:26.690Z,101766.53
2022-07-31T02:16:00.756Z,101765.66
2022-07-31T02:18:39.888Z,101769.13
2022-07-31T02:21:12.143Z,101769.97
2022-07-31T02:23:44.245Z,101766.53
2022-07-31T02:26:17.828Z,101764.66
2022-07-31T02:28:51.233Z,101769.88
2022-07-31T02:31:24.474Z,101767.19
2022-07-31T02:33:56.696Z,101769.78
2022-07-31T02:36:30.763Z,101768.91
2022-07-31T02:39:03.922Z,101762.00
2022-07-31T02:41:36.684Z,101760.31
2022-07-31T02:44:12.033Z,101754.19
2022-07-31T02:46:45.188Z,101754.00
2022-07-31T02:49:17.717Z,101748.56
2022-07-31T02:51:49.722Z,101744.91
2022-07-31T02:54:21.787Z,101752.78
2022-07-31T02:56:54.229Z,101750.19
2022-07-31T02:59:26.309Z,101749.44
2022-07-31T03:01:59.089Z,101744.19
2022-07-31T03:04:31.473Z,101749.47
2022-07-31T03:07:03.911Z,101752.03
2022-07-31T03:09:36.527Z,101740.63
2022-07-31T03:12:08.717Z,101741.53
2022-07-31T03:14:40.885Z,101743.41
2022-07-31T03:17:13.031Z,101736.28
2022-07-31T03:19:45.475Z,101731.84
2022-07-31T03:22:17.554Z,101733.63
2022-07-31T03:24:49.835Z,101734.50
2022-07-31T03:27:23.717Z,101729.31
2022-07-31T03:29:55.705Z,101724.94
2022-07-31T03:32:27.657Z,101724.00
2022-07-31T03:34:59.621Z,101729.44
2022-07-31T03:37:31.633Z,101726.84
2022-07-31T03:40:03.950Z,101727.78
2022-07-31T03:42:35.921Z,101724.28
2022-07-31T03:45:10.122Z,101721.50
2022-07-31T03:47:42.226Z,101721.41
2022-07-31T03:50:15.362Z,101724.09
2022-07-31T03:52:48.034Z,101724.06
2022-07-31T03:55:20.221Z,101720.63
2022-07-31T03:57:52.775Z,101723.13
2022-07-31T04:00:27.534Z,101723.13
2022-07-31T04:03:11.311Z,101731.97
2022-07-31T04:05:43.443Z,101736.41
2022-07-31T04:08:16.089Z,101737.34
2022-07-31T04:10:48.411Z,101733.84
2022-07-31T04:13:20.444Z,101740.84
2022-07-31T04:15:52.471Z,101739.78
2022-07-31T04:18:24.411Z,101742.41
2022-07-31T04:20:56.378Z,101743.25
2022-07-31T04:23:32.432Z,101741.56
2022-07-31T04:26:05.073Z,101741.47
2022-07-31T04:28:38.109Z,101745.84
2022-07-31T04:31:10.106Z,101739.66
2022-07-31T04:33:47.934Z,101737.81
2022-07-31T04:36:29.652Z,101744.81
2022-07-31T04:39:03.145Z,101741.31
2022-07-31T04:41:35.132Z,101737.13
2022-07-31T04:44:07.098Z,101736.19
2022-07-31T04:46:44.126Z,101729.03
2022-07-31T04:49:16.206Z,101725.38
2022-07-31T04:51:48.574Z,101724.38
2022-07-31T04:54:20.547Z,101723.47
2022-07-31T04:56:52.801Z,101724.22
2022-07-31T05:00:00.458Z,101716.53
2022-07-31T05:02:17.628Z,101721.88
2022-07-31T05:04:53.992Z,101723.50
2022-07-31T05:07:29.282Z,101723.13
2022-07-31T05:10:01.349Z,101715.13
2022-07-31T05:12:33.319Z,101716.97
2022-07-31T05:15:06.276Z,101709.06
2022-07-31T05:17:38.590Z,101706.44
2022-07-31T05:20:11.767Z,101709.44
2022-07-31T05:22:43.869Z,101714.75
2022-07-31T05:25:15.900Z,101715.78
2022-07-31T05:27:50.105Z,101715.72
2022-07-31T05:30:29.949Z,101714.72
2022-07-31T05:33:02.645Z,101724.31
2022-07-31T05:35:34.673Z,101720.00
2022-07-31T05:38:06.740Z,101723.41
2022-07-31T05:40:44.015Z,101724.09
2022-07-31T05:43:16.098Z,101723.22
2022-07-31T05:45:48.154Z,101723.13
2022-07-31T05:48:20.241Z,101730.69
2022-07-31T05:50:52.875Z,101727.50
2022-07-31T05:53:25.193Z,101729.56
2022-07-31T05:55:57.165Z,101727.50
2022-07-31T05:58:29.231Z,101722.72
2022-07-31T06:01:02.441Z,101720.44
2022-07-31T06:03:52.027Z,101720.97
2022-07-31T06:06:24.861Z,101713.53
2022-07-31T06:09:00.647Z,101720.88
2022-07-31T06:11:35.986Z,101714.25
2022-07-31T06:14:08.409Z,101714.56
2022-07-31T06:16:40.398Z,101717.59
2022-07-31T06:19:12.438Z,101719.41
2022-07-31T06:21:44.391Z,101725.09
2022-07-31T06:24:16.390Z,101727.16
2022-07-31T06:26:49.359Z,101722.25
2022-07-31T06:29:23.830Z,101736.09
2022-07-31T06:32:14.426Z,101726.94
2022-07-31T06:34:46.449Z,101724.22
2022-07-31T06:37:19.979Z,101714.38
2022-07-31T06:39:56.108Z,101719.34
2022-07-31T06:42:28.835Z,101715.09
2022-07-31T06:45:00.875Z,101709.13
2022-07-31T06:47:32.806Z,101700.53
2022-07-31T06:50:06.631Z,101714.69
2022-07-31T06:52:38.737Z,101712.97
2022-07-31T06:55:11.535Z,101701.97
2022-07-31T06:57:43.506Z,101702.38
2022-07-31T07:00:20.625Z,101698.41
2022-07-31T07:02:53.019Z,101701.69
2022-07-31T07:05:25.164Z,101704.41
2022-07-31T07:07:57.105Z,101694.50
2022-07-31T07:10:29.074Z,101691.78
2022-07-31T07:13:01.303Z,101688.34
2022-07-31T07:15:33.347Z,101692.25
2022-07-31T07:18:07.001Z,101689.03
2022-07-31T07:20:39.537Z,101688.78
2022-07-31T07:23:11.555Z,101678.75
2022-07-31T07:25:43.659Z,101675.28
2022-07-31T07:28:30.375Z,101676.78
2022-07-31T07:31:04.727Z,101674.06
2022-07-31T07:33:40.537Z,101665.75
2022-07-31T07:36:22.484Z,101657.25
2022-07-31T07:38:56.430Z,101656.00
2022-07-31T07:41:28.455Z,101655.16
2022-07-31T07:44:00.429Z,101656.97
2022-07-31T07:46:32.442Z,101663.44
2022-07-31T07:49:05.035Z,101657.63
2022-07-31T07:51:37.309Z,101649.22
2022-07-31T07:54:09.357Z,101652.50
2022-07-31T07:56:41.464Z,101652.72
2022-07-31T07:59:15.023Z,101643.94
2022-07-31T08:01:48.389Z,101642.41
2022-07-31T08:04:20.366Z,101648.34
2022-07-31T08:06:52.738Z,101645.50
2022-07-31T08:09:25.776Z,101648.38
2022-07-31T08:11:57.802Z,101642.59
2022-07-31T08:14:30.514Z,101646.56
2022-07-31T08:17:02.579Z,101642.38
2022-07-31T08:19:34.717Z,101637.53
2022-07-31T08:22:07.130Z,101642.88
2022-07-31T08:24:39.562Z,101633.22
2022-07-31T08:27:40.282Z,101640.13
2022-07-31T08:30:12.920Z,101625.78
2022-07-31T08:32:44.967Z,101641.16
2022-07-31T08:35:17.026Z,101634.13
2022-07-31T08:37:52.074Z,101632.38
2022-07-31T08:40:43.626Z,101628.47
2022-07-31T08:46:08.485Z,101622.84
2022-07-31T08:48:41.831Z,101625.31
2022-07-31T08:51:14.279Z,101634.13
2022-07-31T08:53:48.842Z,101629.22
2022-07-31T08:56:21.321Z,101625.81
2022-07-31T08:58:55.789Z,101624.97
2022-07-31T09:01:28.311Z,101622.03
2022-07-31T09:04:00.950Z,101620.72
2022-07-31T09:06:32.903Z,101619.09
2022-07-31T09:09:06.086Z,101615.63
2022-07-31T09:11:50.611Z,101608.06
2022-07-31T09:14:34.910Z,101606.94
2022-07-31T09:17:15.541Z,101598.84
2022-07-31T09:19:54.047Z,101592.94
2022-07-31T09:22:29.867Z,101592.25
2022-07-31T09:25:16.399Z,101592.84
2022-07-31T09:27:48.857Z,101597.13
2022-07-31T09:30:20.916Z,101588.31
2022-07-31T09:32:54.068Z,101588.38
2022-07-31T09:35:26.128Z,101585.38
2022-07-31T09:38:00.977Z,101582.94
2022-07-31T09:40:55.463Z,101579.25
2022-07-31T09:43:31.372Z,101582.59
2022-07-31T09:46:06.117Z,101577.56
2022-07-31T09:48:38.276Z,101583.31
2022-07-31T09:51:16.115Z,101580.19
2022-07-31T09:53:53.348Z,101579.25
2022-07-31T09:56:33.811Z,101577.69
2022-07-31T09:59:08.935Z,101574.22
2022-07-31T10:01:46.870Z,101570.09
2022-07-31T10:04:21.052Z,101580.09
2022-07-31T10:06:54.495Z,101570.78
2022-07-31T10:09:27.575Z,101579.03
2022-07-31T10:12:02.242Z,101573.16
2022-07-31T10:14:40.596Z,101573.72
2022-07-31T10:17:20.851Z,101573.34
2022-07-31T10:20:05.004Z,101571.59
2022-07-31T10:22:44.459Z,101567.97
2022-07-31T10:25:28.185Z,101557.38
2022-07-31T10:28:01.894Z,101557.00
2022-07-31T10:30:33.963Z,101541.59
2022-07-31T10:33:17.481Z,101532.09
2022-07-31T10:36:26.159Z,101530.91
2022-07-31T10:39:04.216Z,101527.06
2022-07-31T10:41:56.634Z,101520.84
2022-07-31T10:44:39.082Z,101527.53
2022-07-31T10:47:16.269Z,101519.75
2022-07-31T10:49:50.099Z,101518.91
2022-07-31T10:52:31.060Z,101522.53
2022-07-31T10:55:18.501Z,101509.72
2022-07-31T10:57:56.771Z,101513.78
2022-07-31T11:00:30.303Z,101519.88
2022-07-31T11:03:18.881Z,101507.91
2022-07-31T11:06:01.467Z,101506.84
2022-07-31T11:08:46.602Z,101511.94
2022-07-31T11:11:26.124Z,101505.03
2022-07-31T11:14:00.213Z,101512.03
2022-07-31T11:16:32.224Z,101503.94
2022-07-31T11:19:06.775Z,101504.66
2022-07-31T11:21:41.487Z,101498.88
2022-07-31T11:24:23.518Z,101498.41
2022-07-31T11:26:58.315Z,101483.06
2022-07-31T11:30:01.084Z,101478.00
2022-07-31T11:32:30.882Z,101474.56
2022-07-31T11:35:02.854Z,101483.66
2022-07-31T11:37:46.118Z,101480.72
2022-07-31T11:40:23.738Z,101480.03
2022-07-31T11:45:55.208Z,101485.44
2022-07-31T11:48:35.994Z,101469.91
2022-07-31T11:51:18.757Z,101475.25
2022-07-31T11:53:57.426Z,101472.75
2022-07-31T11:56:30.237Z,101459.41
2022-07-31T11:59:02.224Z,101459.19
2022-07-31T12:01:34.878Z,101456.56
2022-07-31T12:04:08.988Z,101463.09
2022-07-31T12:06:41.403Z,101454.84
2022-07-31T12:10:02.471Z,101460.16
2022-07-31T12:12:07.470Z,101465.03
2022-07-31T12:14:40.201Z,101459.00
2022-07-31T12:17:21.613Z,101460.56
2022-07-31T12:19:57.767Z,101462.47
2022-07-31T12:22:30.050Z,101465.03
2022-07-31T12:25:06.140Z,101455.44
2022-07-31T12:27:41.191Z,101458.38
2022-07-31T12:30:17.775Z,101454.41
2022-07-31T12:32:50.859Z,101453.09
2022-07-31T12:35:23.057Z,101461.25
2022-07-31T12:37:55.275Z,101460.72
2022-07-31T12:40:29.089Z,101474.28
2022-07-31T12:43:01.865Z,101468.28
2022-07-31T12:45:39.845Z,101472.44
2022-07-31T12:48:11.804Z,101467.63
2022-07-31T12:50:43.764Z,101468.31
2022-07-31T12:53:15.742Z,101460.66
2022-07-31T12:55:47.714Z,101474.22
2022-07-31T12:58:20.182Z,101476.03
2022-07-31T13:00:54.934Z,101476.78
2022-07-31T13:03:38.992Z,101480.38
2022-07-31T13:06:18.481Z,101483.03
2022-07-31T13:08:50.644Z,101472.25
2022-07-31T13:11:25.259Z,101478.97
2022-07-31T13:13:58.090Z,101472.22
2022-07-31T13:16:30.320Z,101471.47
2022-07-31T13:19:02.543Z,101473.06
2022-07-31T13:21:42.362Z,101470.72
2022-07-31T13:24:21.640Z,101480.22
2022-07-31T13:26:53.683Z,101467.94
2022-07-31T13:29:25.687Z,101471.63
2022-07-31T13:31:57.639Z,101459.31
2022-07-31T13:34:29.711Z,101464.81
2022-07-31T13:37:02.070Z,101472.66
2022-07-31T13:39:34.317Z,101468.97
2022-07-31T13:42:06.416Z,101463.09
2022-07-31T13:44:38.455Z,101468.59
2022-07-31T13:47:10.438Z,101465.44
2022-07-31T13:49:42.503Z,101455.84
2022-07-31T13:52:14.503Z,101449.13
2022-07-31T13:54:46.602Z,101446.75
2022-07-31T13:57:18.591Z,101447.84
2022-07-31T13:59:50.587Z,101457.50
2022-07-31T14:02:22.674Z,101458.28
2022-07-31T14:04:54.745Z,101455.84
2022-07-31T14:07:48.191Z,101449.28
2022-07-31T14:10:20.907Z,101441.28
2022-07-31T14:12:53.634Z,101442.28
2022-07-31T14:15:30.109Z,101434.31
2022-07-31T14:18:07.828Z,101444.59
2022-07-31T14:20:40.419Z,101437.22
2022-07-31T14:23:12.567Z,101431.00
2022-07-31T14:25:44.798Z,101429.22
2022-07-31T14:28:16.888Z,101431.72
2022-07-31T14:30:49.809Z,101432.09
2022-07-31T14:33:21.834Z,101425.50
2022-07-31T14:35:55.411Z,101429.13
2022-07-31T14:38:27.914Z,101434.06
2022-07-31T14:41:03.808Z,101438.69
2022-07-31T14:43:36.370Z,101435.06
2022-07-31T14:46:08.393Z,101436.88
2022-07-31T14:48:40.371Z,101423.34
2022-07-31T14:51:18.643Z,101432.38
2022-07-31T14:53:52.447Z,101424.06
2022-07-31T14:56:45.326Z,101429.22
2022-07-31T14:59:16.409Z,101429.63
2022-07-31T15:01:48.434Z,101433.22
2022-07-31T15:04:20.599Z,101423.63
2022-07-31T15:07:07.810Z,101426.44
2022-07-31T15:09:44.936Z,101425.84
2022-07-31T15:12:17.093Z,101433.06
2022-07-31T15:14:49.098Z,101425.59
2022-07-31T15:17:21.091Z,101430.50
2022-07-31T15:19:53.114Z,101435.72
2022-07-31T15:22:25.854Z,101433.31
2022-07-31T15:24:57.875Z,101444.19
2022-07-31T15:27:29.892Z,101430.56
2022-07-31T15:30:07.059Z,101437.38
2022-07-31T15:32:39.960Z,101444.59
2022-07-31T15:35:13.129Z,101433.53
2022-07-31T15:37:45.708Z,101437.97
2022-07-31T15:40:18.267Z,101443.13
2022-07-31T15:42:50.329Z,101446.19
2022-07-31T15:45:22.567Z,101436.69
2022-07-31T15:47:54.657Z,101440.38
2022-07-31T15:50:26.709Z,101432.47
2022-07-31T15:52:58.725Z,101428.19
2022-07-31T15:55:30.857Z,101429.97
2022-07-31T15:58:02.863Z,101423.91
2022-07-31T16:00:35.005Z,101425.28
2022-07-31T16:03:07.032Z,101415.38
2022-07-31T16:05:39.306Z,101427.72
2022-07-31T16:08:28.730Z,101423.25
2022-07-31T16:11:04.328Z,101425.84
2022-07-31T16:13:36.863Z,101424.91
2022-07-31T16:16:11.386Z,101411.91
2022-07-31T16:18:43.452Z,101422.44
2022-07-31T16:21:15.711Z,101406.66
2022-07-31T16:23:47.761Z,101419.41
2022-07-31T16:26:20.056Z,101414.72
2022-07-31T16:28:54.140Z,101407.59
2022-07-31T16:31:30.682Z,101405.13
2022-07-31T16:34:03.406Z,101398.03
2022-07-31T16:36:35.766Z,101399.91
2022-07-31T16:39:19.917Z,101396.34
2022-07-31T16:41:54.842Z,101393.84
2022-07-31T16:44:27.357Z,101391.16
2022-07-31T16:47:00.481Z,101389.31
2022-07-31T16:49:36.940Z,101384.66
2022-07-31T16:52:09.223Z,101381.75
2022-07-31T16:54:42.046Z,101380.81
2022-07-31T16:57:15.294Z,101371.94
2022-07-31T16:59:57.820Z,101370.78
2022-07-31T17:02:30.229Z,101366.56
2022-07-31T17:05:02.238Z,101364.75
2022-07-31T17:07:34.214Z,101361.91
2022-07-31T17:10:07.131Z,101371.84
2022-07-31T17:12:39.161Z,101347.94
2022-07-31T17:15:11.865Z,101350.91
2022-07-31T17:17:44.072Z,101349.88
2022-07-31T17:20:23.218Z,101351.47
2022-07-31T17:22:55.319Z,101353.03
2022-07-31T17:25:27.633Z,101344.97
2022-07-31T17:28:00.003Z,101346.50
2022-07-31T17:30:32.755Z,101345.31
2022-07-31T17:33:05.078Z,101340.75
2022-07-31T17:35:37.414Z,101336.44
2022-07-31T17:38:09.434Z,101339.69
2022-07-31T17:40:43.871Z,101338.53
2022-07-31T17:43:16.441Z,101340.78
2022-07-31T17:46:05.910Z,101338.06
2022-07-31T17:48:41.260Z,101340.59
2022-07-31T17:51:13.299Z,101343.78
2022-07-31T17:53:55.330Z,101332.25
2022-07-31T17:56:31.090Z,101340.94
2022-07-31T17:59:06.487Z,101337.63
2022-07-31T18:01:38.609Z,101343.84
2022-07-31T18:04:11.095Z,101343.19
2022-07-31T18:06:54.116Z,101334.44
2022-07-31T18:09:28.630Z,101337.03
2022-07-31T18:12:01.294Z,101338.59
2022-07-31T18:14:33.549Z,101335.31
2022-07-31T18:17:05.841Z,101332.38
2022-07-31T18:19:37.934Z,101334.09
2022-07-31T18:22:09.984Z,101334.16
2022-07-31T18:24:42.103Z,101339.28
2022-07-31T18:27:14.320Z,101335.81
2022-07-31T18:29:54.989Z,101335.78
2022-07-31T18:32:31.177Z,101343.47
2022-07-31T18:35:04.434Z,101345.22
2022-07-31T18:37:36.882Z,101343.53
2022-07-31T18:40:09.584Z,101343.41
2022-07-31T18:42:42.943Z,101344.34
2022-07-31T18:45:14.986Z,101345.97
2022-07-31T18:47:47.064Z,101343.38
2022-07-31T18:50:59.138Z,101340.78
2022-07-31T18:53:11.233Z,101346.19
2022-07-31T18:55:46.133Z,101341.00
2022-07-31T18:58:18.217Z,101340.22
2022-07-31T19:00:54.734Z,101342.81
2022-07-31T19:03:29.817Z,101343.03
2022-07-31T19:06:01.804Z,101344.00
2022-07-31T19:08:33.890Z,101343.78
2022-07-31T19:11:05.915Z,101341.06
2022-07-31T19:13:38.154Z,101342.28
2022-07-31T19:16:10.186Z,101343.38
2022-07-31T19:18:43.948Z,101343.50
2022-07-31T19:21:22.947Z,101340.06
2022-07-31T19:24:08.351Z,101341.88
2022-07-31T19:26:40.334Z,101341.00
2022-07-31T19:29:12.940Z,101340.94
2022-07-31T19:31:49.122Z,101341.13
2022-07-31T19:34:21.215Z,101346.66
2022-07-31T19:36:53.504Z,101342.31
2022-07-31T19:39:25.505Z,101344.00
2022-07-31T19:42:11.387Z,101342.28
2022-07-31T19:44:44.301Z,101347.56
2022-07-31T19:47:16.318Z,101355.47
2022-07-31T19:49:48.831Z,101353.59
2022-07-31T19:52:21.280Z,101352.56
2022-07-31T19:54:53.394Z,101351.69
2022-07-31T19:57:25.412Z,101350.94
2022-07-31T19:59:58.846Z,101359.00
2022-07-31T20:02:30.808Z,101358.06
2022-07-31T20:05:03.059Z,101356.13
2022-07-31T20:07:35.190Z,101358.84
2022-07-31T20:10:12.729Z,101353.41
2022-07-31T20:12:44.978Z,101349.16
2022-07-31T20:15:17.249Z,101343.84
2022-07-31T20:17:49.421Z,101344.94
2022-07-31T20:20:21.459Z,101347.47
2022-07-31T20:22:53.496Z,101350.13
2022-07-31T20:25:25.573Z,101342.91
2022-07-31T20:27:57.571Z,101344.75
2022-07-31T20:30:30.584Z,101347.25
2022-07-31T20:33:02.525Z,101346.13
2022-07-31T20:35:49.213Z,101343.25
2022-07-31T20:38:23.263Z,101347.75
2022-07-31T20:40:56.122Z,101339.97
2022-07-31T20:43:30.314Z,101340.06
2022-07-31T20:46:02.316Z,101340.50
2022-07-31T20:48:35.162Z,101332.84
2022-07-31T20:51:09.255Z,101338.59
2022-07-31T20:53:41.290Z,101347.78
2022-07-31T20:56:13.824Z,101340.53
2022-07-31T20:58:51.148Z,101340.31
2022-07-31T21:01:24.998Z,101344.50
2022-07-31T21:03:57.185Z,101337.19
2022-07-31T21:06:29.211Z,101337.03
2022-07-31T21:09:01.167Z,101334.16
2022-07-31T21:11:36.544Z,101337.72
2022-07-31T21:14:08.637Z,101338.53
2022-07-31T21:16:41.483Z,101331.34
2022-07-31T21:19:13.571Z,101341.06
2022-07-31T21:21:45.621Z,101329.50
2022-07-31T21:24:18.200Z,101332.13
2022-07-31T21:26:53.417Z,101332.13
2022-07-31T21:29:30.242Z,101335.69
2022-07-31T21:32:02.996Z,101332.13
2022-07-31T21:34:37.053Z,101327.69
2022-07-31T21:37:09.480Z,101328.53
2022-07-31T21:39:48.722Z,101330.38
2022-07-31T21:42:21.471Z,101330.38
2022-07-31T21:44:56.333Z,101335.72
2022-07-31T21:47:52.875Z,101337.50
2022-07-31T21:50:27.866Z,101341.06
2022-07-31T21:53:01.519Z,101334.97
2022-07-31T21:55:33.523Z,101335.00
2022-07-31T21:58:07.209Z,101345.50
2022-07-31T22:00:39.500Z,101345.50
2022-07-31T22:03:11.625Z,101340.09
2022-07-31T22:06:02.076Z,101345.47
2022-07-31T22:08:34.195Z,101348.22
2022-07-31T22:11:06.312Z,101350.22
2022-07-31T22:13:38.589Z,101345.03
2022-07-31T22:16:10.632Z,101343.25
2022-07-31T22:18:43.082Z,101340.66
2022-07-31T22:21:15.926Z,101348.44
2022-07-31T22:23:48.112Z,101350.28
2022-07-31T22:26:20.478Z,101345.94
2022-07-31T22:28:53.740Z,101352.19
2022-07-31T22:31:25.970Z,101356.69
2022-07-31T22:33:58.084Z,101344.34
2022-07-31T22:36:30.276Z,101346.28
2022-07-31T22:39:02.396Z,101356.84
2022-07-31T22:41:34.416Z,101355.84
2022-07-31T22:44:13.681Z,101353.16
2022-07-31T22:46:48.563Z,101359.31
2022-07-31T22:49:21.764Z,101368.09
2022-07-31T22:51:53.786Z,101359.28
2022-07-31T22:54:25.826Z,101363.59
2022-07-31T22:56:57.886Z,101362.69
2022-07-31T22:59:29.890Z,101368.03
2022-07-31T23:02:04.266Z,101362.72
2022-07-31T23:04:37.045Z,101363.81
2022-07-31T23:07:09.938Z,101375.41
2022-07-31T23:09:41.969Z,101370.25
2022-07-31T23:12:13.927Z,101371.81
2022-07-31T23:14:46.062Z,101368.19
2022-07-31T23:17:22.507Z,101372.69
2022-07-31T23:19:55.846Z,101373.56
2022-07-31T23:22:33.920Z,101373.59
2022-07-31T23:25:07.606Z,101369.13
2022-07-31T23:27:39.608Z,101368.97
2022-07-31T23:30:12.060Z,101367.13
2022-07-31T23:32:44.047Z,101368.16
2022-07-31T23:35:16.139Z,101364.69
2022-07-31T23:37:48.167Z,101367.38
2022-07-31T23:40:20.215Z,101373.72
2022-07-31T23:42:52.246Z,101372.81
2022-07-31T23:45:24.375Z,101374.63
2022-07-31T23:47:58.957Z,101377.19
2022-07-31T23:50:31.307Z,101378.06
2022-07-31T23:53:03.327Z,101372.69
2022-07-31T23:55:37.795Z,101368.41
2022-07-31T23:58:14.722Z,101373.66
